M/y Libra Y — SVA7387 — position and weather

sailwx.info

Track history (hours):
 
Tides and Currents Weather Stations Pressure Air Temp Water Temp Dewpoint Dewpoint Depression Visibility Wind Speed Wind Dir Waves Ship Positions

M/y Libra Y

Last reported at 2018-Jul-23 03:58 UTC. Time now 2018-Jul-23 04:06 UTC.
Position N 37°27' E 025°20'.

Length 42 m.

Type: Pleasure craft. MMSI: 240000901.

Date/timePositionNaut miles runAvg speedWind from/ knotsBaromVisibWave heightAir tempDewpointWater temp
2018-Jul-23 03:58N 37°27' E 025°20'0 0.0
2018-Jul-23 03:04N 37°27' E 025°20'0 0.0
2018-Jul-23 02:40N 37°27' E 025°20'0 0.0
2018-Jul-23 02:10N 37°27' E 025°20'0 0.0
2018-Jul-23 01:58N 37°27' E 025°20'0 0.0
2018-Jul-23 01:28N 37°27' E 025°20'0 0.0
2018-Jul-23 00:55N 37°27' E 025°20'0 0.0
2018-Jul-23 00:07N 37°27' E 025°20'0 0.0
2018-Jul-22 20:31N 37°27' E 025°20'0 0.0
2018-Jul-22 20:25N 37°27' E 025°20'0 0.0
2018-Jul-22 19:37N 37°27' E 025°20'0 0.0
2018-Jul-22 18:07N 37°27' E 025°20'0 0.0
2018-Jul-22 17:49N 37°27' E 025°20'0 0.1
2018-Jul-22 16:16N 37°27' E 025°20'0 1.0
2018-Jul-22 15:58N 37°27' E 025°19'5 5.6
2018-Jul-22 14:59N 37°26' E 025°12'0 0.0
2018-Jul-22 14:11N 37°26' E 025°12'0 0.0
2018-Jul-22 13:56N 37°26' E 025°12'0 0.0
2018-Jul-22 13:26N 37°26' E 025°12'0 0.0
2018-Jul-22 12:50N 37°26' E 025°12'0 0.0
2018-Jul-22 12:26N 37°26' E 025°12'0 0.0
2018-Jul-22 11:41N 37°26' E 025°12'0 0.0
2018-Jul-22 11:17N 37°26' E 025°12'0 0.0
2018-Jul-22 10:56N 37°26' E 025°12'0 0.0
2018-Jul-22 10:26N 37°26' E 025°12'0 0.0
2018-Jul-22 09:53N 37°26' E 025°12'0 0.0
2018-Jul-22 09:29N 37°26' E 025°12'0 0.1
2018-Jul-22 08:57N 37°26' E 025°12'4 7.9
2018-Jul-22 08:30N 37°22' E 025°12'814.3
2018-Jul-22 07:59N 37°15' E 025°14'7 7.0
2018-Jul-22 06:56N 37°08' E 025°14'0 0.0
2018-Jul-22 05:32N 37°08' E 025°14'0 0.0
2018-Jul-22 05:14N 37°08' E 025°14'0 0.0
2018-Jul-22 04:50N 37°08' E 025°14'0 0.0
2018-Jul-22 04:26N 37°08' E 025°14'0 0.0
2018-Jul-22 03:59N 37°08' E 025°14'0 0.0
2018-Jul-22 03:29N 37°08' E 025°14'0 0.0
2018-Jul-22 02:53N 37°08' E 025°14'0 0.0
2018-Jul-22 02:29N 37°08' E 025°14'0 0.0
2018-Jul-22 01:44N 37°08' E 025°14'0 0.0
2018-Jul-22 01:26N 37°08' E 025°14'0 0.0
2018-Jul-22 00:44N 37°08' E 025°14'0 0.0
2018-Jul-21 23:44N 37°08' E 025°14'0 0.0
2018-Jul-21 23:20N 37°08' E 025°14'0 0.0
2018-Jul-21 22:53N 37°08' E 025°14'0 0.0
2018-Jul-21 22:17N 37°08' E 025°14'0 0.0
2018-Jul-21 21:23N 37°08' E 025°14'0 0.0
2018-Jul-21 20:56N 37°08' E 025°14'0 0.0
2018-Jul-21 20:29N 37°08' E 025°14'0 0.0
2018-Jul-21 18:50N 37°08' E 025°14'0 0.0
2018-Jul-21 18:29N 37°08' E 025°14'0 0.0
2018-Jul-21 17:59N 37°08' E 025°14'0 0.0
2018-Jul-21 17:29N 37°08' E 025°14'0 0.2
2018-Jul-21 16:45N 37°08' E 025°14'2 9.1
2018-Jul-21 16:30N 37°09' E 025°16'510.7
2018-Jul-21 16:00N 37°04' E 025°17'10 1.7
2018-Jul-21 10:14N 37°02' E 025°05'0 1.1
2018-Jul-21 10:00N 37°02' E 025°05'0 0.0
2018-Jul-21 09:27N 37°02' E 025°05'0 0.0
2018-Jul-21 09:00N 37°02' E 025°05'0 0.0
2018-Jul-21 08:30N 37°02' E 025°05'0 0.0
2018-Jul-21 08:00N 37°02' E 025°05'0 0.0
2018-Jul-21 07:30N 37°02' E 025°05'0 0.0
2018-Jul-21 06:57N 37°02' E 025°05'0 0.0
2018-Jul-21 06:30N 37°02' E 025°05'0 0.0
2018-Jul-21 06:00N 37°02' E 025°05'0 0.0
2018-Jul-21 05:30N 37°02' E 025°05'0 0.0
2018-Jul-21 04:57N 37°02' E 025°05'0 0.0
2018-Jul-21 04:30N 37°02' E 025°05'0 0.0
2018-Jul-21 04:00N 37°02' E 025°05'0 0.0
2018-Jul-21 03:30N 37°02' E 025°05'0 0.0
2018-Jul-21 03:00N 37°02' E 025°05'0 0.0
2018-Jul-21 02:30N 37°02' E 025°05'0 0.0
2018-Jul-21 02:00N 37°02' E 025°05'0 0.0
2018-Jul-21 01:27N 37°02' E 025°05'0 0.0
2018-Jul-21 01:00N 37°02' E 025°05'0 0.0
2018-Jul-21 00:30N 37°02' E 025°05'0 0.0
2018-Jul-21 00:00N 37°02' E 025°05'0 0.0
2018-Jul-20 23:30N 37°02' E 025°05'0 0.0
2018-Jul-20 22:57N 37°02' E 025°05'0 0.0
2018-Jul-20 22:30N 37°02' E 025°05'0 0.0
2018-Jul-20 22:00N 37°02' E 025°05'0 0.0
2018-Jul-20 21:30N 37°02' E 025°05'0 0.0
2018-Jul-20 21:00N 37°02' E 025°05'0 0.0
2018-Jul-20 20:30N 37°02' E 025°05'0 0.0
2018-Jul-20 20:00N 37°02' E 025°05'0 0.0
2018-Jul-20 19:30N 37°02' E 025°05'0 0.0
2018-Jul-20 19:00N 37°02' E 025°05'0 0.0
2018-Jul-20 18:24N 37°02' E 025°05'0 0.0
2018-Jul-20 18:00N 37°02' E 025°05'0 0.0
2018-Jul-20 17:30N 37°02' E 025°05'0 0.0
2018-Jul-20 17:00N 37°02' E 025°05'0 0.0
2018-Jul-20 16:24N 37°02' E 025°05'0 0.0
2018-Jul-20 15:57N 37°02' E 025°05'0 0.0
2018-Jul-20 15:30N 37°02' E 025°05'0 0.0
2018-Jul-20 15:00N 37°02' E 025°05'0 0.0
2018-Jul-20 14:30N 37°02' E 025°05'0 0.0
2018-Jul-20 13:54N 37°02' E 025°05'0 0.0
2018-Jul-20 13:30N 37°02' E 025°05'0 0.0
2018-Jul-20 13:00N 37°02' E 025°05'0 0.0
2018-Jul-20 12:30N 37°02' E 025°05'0 0.0
2018-Jul-20 12:00N 37°02' E 025°05'0 0.0
2018-Jul-20 11:30N 37°02' E 025°05'0 0.0
2018-Jul-20 11:00N 37°02' E 025°05'0 0.0
2018-Jul-20 04:32N 37°02' E 025°05'0 0.2
2018-Jul-20 04:29N 37°02' E 025°05'0 0.0
2018-Jul-20 03:59N 37°02' E 025°05'0 0.0
2018-Jul-20 03:26N 37°02' E 025°05'0 0.0
2018-Jul-20 02:56N 37°02' E 025°05'0 0.0
2018-Jul-20 02:26N 37°02' E 025°05'0 0.0
2018-Jul-20 01:59N 37°02' E 025°05'0 0.0
2018-Jul-20 01:29N 37°02' E 025°05'0 0.0
2018-Jul-20 00:59N 37°02' E 025°05'0 0.0
2018-Jul-20 00:29N 37°02' E 025°05'0 0.0
2018-Jul-19 23:59N 37°02' E 025°05'0 0.0
2018-Jul-19 23:29N 37°02' E 025°05'0 0.0
2018-Jul-19 22:59N 37°02' E 025°05'0 0.0
2018-Jul-19 22:29N 37°02' E 025°05'0 0.0
2018-Jul-19 21:59N 37°02' E 025°05'0 0.0
2018-Jul-19 21:29N 37°02' E 025°05'0 0.0
2018-Jul-19 20:59N 37°02' E 025°05'0 0.0
2018-Jul-19 20:29N 37°02' E 025°05'0 0.0
2018-Jul-19 19:59N 37°02' E 025°05'0 0.0
2018-Jul-19 19:11N 37°02' E 025°05'0 0.0
2018-Jul-19 18:59N 37°02' E 025°05'0 0.0
2018-Jul-19 18:29N 37°02' E 025°05'0 0.0
2018-Jul-19 17:59N 37°02' E 025°05'0 0.0
2018-Jul-19 17:29N 37°02' E 025°05'0 0.0
2018-Jul-19 16:56N 37°02' E 025°05'0 0.0
2018-Jul-19 16:29N 37°02' E 025°05'0 0.0
2018-Jul-19 15:59N 37°02' E 025°05'0 0.0
2018-Jul-19 15:30N 37°02' E 025°05'1 0.1
2018-Jul-19 10:18N 37°02' E 025°05'1 2.1
2018-Jul-19 09:57N 37°02' E 025°05'0 0.0
2018-Jul-19 09:30N 37°02' E 025°05'0 0.0
2018-Jul-19 09:00N 37°02' E 025°05'0 0.0
2018-Jul-19 08:30N 37°02' E 025°05'0 0.0
2018-Jul-19 08:00N 37°02' E 025°05'0 0.0
2018-Jul-19 07:24N 37°02' E 025°05'0 0.0
2018-Jul-19 06:57N 37°02' E 025°05'0 0.0
2018-Jul-19 06:30N 37°02' E 025°05'0 0.0
2018-Jul-19 06:00N 37°02' E 025°05'0 0.0
2018-Jul-19 05:27N 37°02' E 025°05'0 0.0
2018-Jul-19 05:00N 37°02' E 025°05'0 0.0
2018-Jul-19 04:30N 37°02' E 025°05'0 0.0
2018-Jul-19 04:00N 37°02' E 025°05'0 0.0
2018-Jul-19 03:30N 37°02' E 025°05'0 0.0
2018-Jul-19 03:00N 37°02' E 025°05'0 0.0
2018-Jul-19 02:30N 37°02' E 025°05'0 0.0
2018-Jul-19 02:00N 37°02' E 025°05'0 0.0
2018-Jul-19 01:30N 37°02' E 025°05'0 0.0
2018-Jul-19 01:00N 37°02' E 025°05'0 0.0
2018-Jul-19 00:30N 37°02' E 025°05'0 0.0
2018-Jul-19 00:00N 37°02' E 025°05'0 0.0
2018-Jul-18 23:30N 37°02' E 025°05'0 0.0
2018-Jul-18 23:00N 37°02' E 025°05'0 0.0
2018-Jul-18 22:30N 37°02' E 025°05'0 0.0
2018-Jul-18 22:00N 37°02' E 025°05'0 0.0
2018-Jul-18 21:27N 37°02' E 025°05'0 0.0
2018-Jul-18 20:57N 37°02' E 025°05'0 0.0
2018-Jul-18 20:30N 37°02' E 025°05'0 0.0
2018-Jul-18 20:00N 37°02' E 025°05'0 0.0
2018-Jul-18 19:27N 37°02' E 025°05'0 0.0
2018-Jul-18 19:00N 37°02' E 025°05'0 0.0
2018-Jul-18 18:30N 37°02' E 025°05'0 0.1
2018-Jul-18 18:00N 37°02' E 025°05'  
Track history (hours):
 
Tides and Currents Weather Stations Pressure Air Temp Water Temp Dewpoint Dewpoint Depression Visibility Wind Speed Wind Dir Waves Ship Positions

M/y Libra Y

Last reported at 2018-Jul-23 03:58 UTC. Time now 2018-Jul-23 04:06 UTC.
Position N 37°27' E 025°20'.

Length 42 m.

Type: Pleasure craft. MMSI: 240000901.

Date/timePositionNaut miles runAvg speedWind from/ knotsBaromVisibWave heightAir tempDewpointWater temp
2018-Jul-23 03:58N 37°27' E 025°20'0 0.0
2018-Jul-23 03:04N 37°27' E 025°20'0 0.0
2018-Jul-23 02:40N 37°27' E 025°20'0 0.0
2018-Jul-23 02:10N 37°27' E 025°20'0 0.0
2018-Jul-23 01:58N 37°27' E 025°20'0 0.0
2018-Jul-23 01:28N 37°27' E 025°20'0 0.0
2018-Jul-23 00:55N 37°27' E 025°20'0 0.0
2018-Jul-23 00:07N 37°27' E 025°20'0 0.0
2018-Jul-22 20:31N 37°27' E 025°20'0 0.0
2018-Jul-22 20:25N 37°27' E 025°20'0 0.0
2018-Jul-22 19:37N 37°27' E 025°20'0 0.0
2018-Jul-22 18:07N 37°27' E 025°20'0 0.0
2018-Jul-22 17:49N 37°27' E 025°20'0 0.1
2018-Jul-22 16:16N 37°27' E 025°20'0 1.0
2018-Jul-22 15:58N 37°27' E 025°19'5 5.6
2018-Jul-22 14:59N 37°26' E 025°12'0 0.0
2018-Jul-22 14:11N 37°26' E 025°12'0 0.0
2018-Jul-22 13:56N 37°26' E 025°12'0 0.0
2018-Jul-22 13:26N 37°26' E 025°12'0 0.0
2018-Jul-22 12:50N 37°26' E 025°12'0 0.0
2018-Jul-22 12:26N 37°26' E 025°12'0 0.0
2018-Jul-22 11:41N 37°26' E 025°12'0 0.0
2018-Jul-22 11:17N 37°26' E 025°12'0 0.0
2018-Jul-22 10:56N 37°26' E 025°12'0 0.0
2018-Jul-22 10:26N 37°26' E 025°12'0 0.0
2018-Jul-22 09:53N 37°26' E 025°12'0 0.0
2018-Jul-22 09:29N 37°26' E 025°12'0 0.1
2018-Jul-22 08:57N 37°26' E 025°12'4 7.9
2018-Jul-22 08:30N 37°22' E 025°12'814.3
2018-Jul-22 07:59N 37°15' E 025°14'7 7.0
2018-Jul-22 06:56N 37°08' E 025°14'0 0.0
2018-Jul-22 05:32N 37°08' E 025°14'0 0.0
2018-Jul-22 05:14N 37°08' E 025°14'0 0.0
2018-Jul-22 04:50N 37°08' E 025°14'0 0.0
2018-Jul-22 04:26N 37°08' E 025°14'0 0.0
2018-Jul-22 03:59N 37°08' E 025°14'0 0.0
2018-Jul-22 03:29N 37°08' E 025°14'0 0.0
2018-Jul-22 02:53N 37°08' E 025°14'0 0.0
2018-Jul-22 02:29N 37°08' E 025°14'0 0.0
2018-Jul-22 01:44N 37°08' E 025°14'0 0.0
2018-Jul-22 01:26N 37°08' E 025°14'0 0.0
2018-Jul-22 00:44N 37°08' E 025°14'0 0.0
2018-Jul-21 23:44N 37°08' E 025°14'0 0.0
2018-Jul-21 23:20N 37°08' E 025°14'0 0.0
2018-Jul-21 22:53N 37°08' E 025°14'0 0.0
2018-Jul-21 22:17N 37°08' E 025°14'0 0.0
2018-Jul-21 21:23N 37°08' E 025°14'0 0.0
2018-Jul-21 20:56N 37°08' E 025°14'0 0.0
2018-Jul-21 20:29N 37°08' E 025°14'0 0.0
2018-Jul-21 18:50N 37°08' E 025°14'0 0.0
2018-Jul-21 18:29N 37°08' E 025°14'0 0.0
2018-Jul-21 17:59N 37°08' E 025°14'0 0.0
2018-Jul-21 17:29N 37°08' E 025°14'0 0.2
2018-Jul-21 16:45N 37°08' E 025°14'2 9.1
2018-Jul-21 16:30N 37°09' E 025°16'510.7
2018-Jul-21 16:00N 37°04' E 025°17'10 1.7
2018-Jul-21 10:14N 37°02' E 025°05'0 1.1
2018-Jul-21 10:00N 37°02' E 025°05'0 0.0
2018-Jul-21 09:27N 37°02' E 025°05'0 0.0
2018-Jul-21 09:00N 37°02' E 025°05'0 0.0
2018-Jul-21 08:30N 37°02' E 025°05'0 0.0
2018-Jul-21 08:00N 37°02' E 025°05'0 0.0
2018-Jul-21 07:30N 37°02' E 025°05'0 0.0
2018-Jul-21 06:57N 37°02' E 025°05'0 0.0
2018-Jul-21 06:30N 37°02' E 025°05'0 0.0
2018-Jul-21 06:00N 37°02' E 025°05'0 0.0
2018-Jul-21 05:30N 37°02' E 025°05'0 0.0
2018-Jul-21 04:57N 37°02' E 025°05'0 0.0
2018-Jul-21 04:30N 37°02' E 025°05'0 0.0
2018-Jul-21 04:00N 37°02' E 025°05'0 0.0
2018-Jul-21 03:30N 37°02' E 025°05'0 0.0
2018-Jul-21 03:00N 37°02' E 025°05'0 0.0
2018-Jul-21 02:30N 37°02' E 025°05'0 0.0
2018-Jul-21 02:00N 37°02' E 025°05'0 0.0
2018-Jul-21 01:27N 37°02' E 025°05'0 0.0
2018-Jul-21 01:00N 37°02' E 025°05'0 0.0
2018-Jul-21 00:30N 37°02' E 025°05'0 0.0
2018-Jul-21 00:00N 37°02' E 025°05'0 0.0
2018-Jul-20 23:30N 37°02' E 025°05'0 0.0
2018-Jul-20 22:57N 37°02' E 025°05'0 0.0
2018-Jul-20 22:30N 37°02' E 025°05'0 0.0
2018-Jul-20 22:00N 37°02' E 025°05'0 0.0
2018-Jul-20 21:30N 37°02' E 025°05'0 0.0
2018-Jul-20 21:00N 37°02' E 025°05'0 0.0
2018-Jul-20 20:30N 37°02' E 025°05'0 0.0
2018-Jul-20 20:00N 37°02' E 025°05'0 0.0
2018-Jul-20 19:30N 37°02' E 025°05'0 0.0
2018-Jul-20 19:00N 37°02' E 025°05'0 0.0
2018-Jul-20 18:24N 37°02' E 025°05'0 0.0
2018-Jul-20 18:00N 37°02' E 025°05'0 0.0
2018-Jul-20 17:30N 37°02' E 025°05'0 0.0
2018-Jul-20 17:00N 37°02' E 025°05'0 0.0
2018-Jul-20 16:24N 37°02' E 025°05'0 0.0
2018-Jul-20 15:57N 37°02' E 025°05'0 0.0
2018-Jul-20 15:30N 37°02' E 025°05'0 0.0
2018-Jul-20 15:00N 37°02' E 025°05'0 0.0
2018-Jul-20 14:30N 37°02' E 025°05'0 0.0
2018-Jul-20 13:54N 37°02' E 025°05'0 0.0
2018-Jul-20 13:30N 37°02' E 025°05'0 0.0
2018-Jul-20 13:00N 37°02' E 025°05'0 0.0
2018-Jul-20 12:30N 37°02' E 025°05'0 0.0
2018-Jul-20 12:00N 37°02' E 025°05'0 0.0
2018-Jul-20 11:30N 37°02' E 025°05'0 0.0
2018-Jul-20 11:00N 37°02' E 025°05'0 0.0
2018-Jul-20 04:32N 37°02' E 025°05'0 0.2
2018-Jul-20 04:29N 37°02' E 025°05'0 0.0
2018-Jul-20 03:59N 37°02' E 025°05'0 0.0
2018-Jul-20 03:26N 37°02' E 025°05'0 0.0
2018-Jul-20 02:56N 37°02' E 025°05'0 0.0
2018-Jul-20 02:26N 37°02' E 025°05'0 0.0
2018-Jul-20 01:59N 37°02' E 025°05'0 0.0
2018-Jul-20 01:29N 37°02' E 025°05'0 0.0
2018-Jul-20 00:59N 37°02' E 025°05'0 0.0
2018-Jul-20 00:29N 37°02' E 025°05'0 0.0
2018-Jul-19 23:59N 37°02' E 025°05'0 0.0
2018-Jul-19 23:29N 37°02' E 025°05'0 0.0
2018-Jul-19 22:59N 37°02' E 025°05'0 0.0
2018-Jul-19 22:29N 37°02' E 025°05'0 0.0
2018-Jul-19 21:59N 37°02' E 025°05'0 0.0
2018-Jul-19 21:29N 37°02' E 025°05'0 0.0
2018-Jul-19 20:59N 37°02' E 025°05'0 0.0
2018-Jul-19 20:29N 37°02' E 025°05'0 0.0
2018-Jul-19 19:59N 37°02' E 025°05'0 0.0
2018-Jul-19 19:11N 37°02' E 025°05'0 0.0
2018-Jul-19 18:59N 37°02' E 025°05'0 0.0
2018-Jul-19 18:29N 37°02' E 025°05'0 0.0
2018-Jul-19 17:59N 37°02' E 025°05'0 0.0
2018-Jul-19 17:29N 37°02' E 025°05'0 0.0
2018-Jul-19 16:56N 37°02' E 025°05'0 0.0
2018-Jul-19 16:29N 37°02' E 025°05'0 0.0
2018-Jul-19 15:59N 37°02' E 025°05'0 0.0
2018-Jul-19 15:30N 37°02' E 025°05'1 0.1
2018-Jul-19 10:18N 37°02' E 025°05'1 2.1
2018-Jul-19 09:57N 37°02' E 025°05'0 0.0
2018-Jul-19 09:30N 37°02' E 025°05'0 0.0
2018-Jul-19 09:00N 37°02' E 025°05'0 0.0
2018-Jul-19 08:30N 37°02' E 025°05'0 0.0
2018-Jul-19 08:00N 37°02' E 025°05'0 0.0
2018-Jul-19 07:24N 37°02' E 025°05'0 0.0
2018-Jul-19 06:57N 37°02' E 025°05'0 0.0
2018-Jul-19 06:30N 37°02' E 025°05'0 0.0
2018-Jul-19 06:00N 37°02' E 025°05'0 0.0
2018-Jul-19 05:27N 37°02' E 025°05'0 0.0
2018-Jul-19 05:00N 37°02' E 025°05'0 0.0
2018-Jul-19 04:30N 37°02' E 025°05'0 0.0
2018-Jul-19 04:00N 37°02' E 025°05'0 0.0
2018-Jul-19 03:30N 37°02' E 025°05'0 0.0
2018-Jul-19 03:00N 37°02' E 025°05'0 0.0
2018-Jul-19 02:30N 37°02' E 025°05'0 0.0
2018-Jul-19 02:00N 37°02' E 025°05'0 0.0
2018-Jul-19 01:30N 37°02' E 025°05'0 0.0
2018-Jul-19 01:00N 37°02' E 025°05'0 0.0
2018-Jul-19 00:30N 37°02' E 025°05'0 0.0
2018-Jul-19 00:00N 37°02' E 025°05'0 0.0
2018-Jul-18 23:30N 37°02' E 025°05'0 0.0
2018-Jul-18 23:00N 37°02' E 025°05'0 0.0
2018-Jul-18 22:30N 37°02' E 025°05'0 0.0
2018-Jul-18 22:00N 37°02' E 025°05'0 0.0
2018-Jul-18 21:27N 37°02' E 025°05'0 0.0
2018-Jul-18 20:57N 37°02' E 025°05'0 0.0
2018-Jul-18 20:30N 37°02' E 025°05'0 0.0
2018-Jul-18 20:00N 37°02' E 025°05'0 0.0
2018-Jul-18 19:27N 37°02' E 025°05'0 0.0
2018-Jul-18 19:00N 37°02' E 025°05'0 0.0
2018-Jul-18 18:30N 37°02' E 025°05'0 0.1
2018-Jul-18 18:00N 37°02' E 025°05'  

Dump ship's entire track history